sensor_id;sensor_type;location;lat;lon;timestamp;pressure;altitude;pressure_sealevel;temperature
18782;BMP180;9519;51.890;8.970;2022-09-09T00:04:40;98690.00;;;14.80
18782;BMP180;9519;51.890;8.970;2022-09-09T00:09:47;98687.00;;;14.80
18782;BMP180;9519;51.890;8.970;2022-09-09T00:14:55;98686.00;;;14.80
18782;BMP180;9519;51.890;8.970;2022-09-09T00:20:09;98686.00;;;14.80
18782;BMP180;9519;51.890;8.970;2022-09-09T00:25:22;98676.00;;;14.70
18782;BMP180;9519;51.890;8.970;2022-09-09T00:30:31;98679.00;;;14.70
18782;BMP180;9519;51.890;8.970;2022-09-09T00:35:40;98678.00;;;14.60
18782;BMP180;9519;51.890;8.970;2022-09-09T00:40:50;98676.00;;;14.60
18782;BMP180;9519;51.890;8.970;2022-09-09T00:51:57;98660.00;;;14.50
18782;BMP180;9519;51.890;8.970;2022-09-09T00:57:14;98661.00;;;14.50
18782;BMP180;9519;51.890;8.970;2022-09-09T01:02:28;98669.00;;;14.40
18782;BMP180;9519;51.890;8.970;2022-09-09T01:07:33;98677.00;;;14.40
18782;BMP180;9519;51.890;8.970;2022-09-09T01:12:41;98679.00;;;14.40
18782;BMP180;9519;51.890;8.970;2022-09-09T01:17:56;98687.00;;;14.40
18782;BMP180;9519;51.890;8.970;2022-09-09T01:23:20;98683.00;;;14.50
18782;BMP180;9519;51.890;8.970;2022-09-09T01:28:35;98681.00;;;14.50
18782;BMP180;9519;51.890;8.970;2022-09-09T01:33:38;98689.00;;;14.60
18782;BMP180;9519;51.890;8.970;2022-09-09T01:38:40;98693.00;;;14.60
18782;BMP180;9519;51.890;8.970;2022-09-09T01:43:43;98685.00;;;14.60
18782;BMP180;9519;51.890;8.970;2022-09-09T01:48:46;98674.00;;;14.60
18782;BMP180;9519;51.890;8.970;2022-09-09T01:53:48;98683.00;;;14.60
18782;BMP180;9519;51.890;8.970;2022-09-09T01:59:09;98686.00;;;14.50
18782;BMP180;9519;51.890;8.970;2022-09-09T02:04:35;98678.00;;;14.60
18782;BMP180;9519;51.890;8.970;2022-09-09T02:09:38;98669.00;;;14.50
18782;BMP180;9519;51.890;8.970;2022-09-09T02:14:51;98682.00;;;14.50
18782;BMP180;9519;51.890;8.970;2022-09-09T02:20:03;98679.00;;;14.60
18782;BMP180;9519;51.890;8.970;2022-09-09T02:25:11;98674.00;;;14.60
18782;BMP180;9519;51.890;8.970;2022-09-09T02:30:16;98678.00;;;14.60
18782;BMP180;9519;51.890;8.970;2022-09-09T02:35:23;98678.00;;;14.50
18782;BMP180;9519;51.890;8.970;2022-09-09T02:40:27;98670.00;;;14.50
18782;BMP180;9519;51.890;8.970;2022-09-09T02:45:41;98674.00;;;14.40
18782;BMP180;9519;51.890;8.970;2022-09-09T02:50:54;98686.00;;;14.40
18782;BMP180;9519;51.890;8.970;2022-09-09T02:56:04;98682.00;;;14.40
18782;BMP180;9519;51.890;8.970;2022-09-09T03:01:09;98678.00;;;14.50
18782;BMP180;9519;51.890;8.970;2022-09-09T03:06:11;98679.00;;;14.50
18782;BMP180;9519;51.890;8.970;2022-09-09T03:11:15;98689.00;;;14.50
18782;BMP180;9519;51.890;8.970;2022-09-09T03:16:18;98684.00;;;14.50
18782;BMP180;9519;51.890;8.970;2022-09-09T03:21:20;98687.00;;;14.50
18782;BMP180;9519;51.890;8.970;2022-09-09T03:26:22;98680.00;;;14.50
18782;BMP180;9519;51.890;8.970;2022-09-09T03:31:26;98680.00;;;14.50
18782;BMP180;9519;51.890;8.970;2022-09-09T03:36:31;98679.00;;;14.50
18782;BMP180;9519;51.890;8.970;2022-09-09T03:41:33;98681.00;;;14.50
18782;BMP180;9519;51.890;8.970;2022-09-09T03:46:36;98675.00;;;14.50
18782;BMP180;9519;51.890;8.970;2022-09-09T03:51:38;98685.00;;;14.40
18782;BMP180;9519;51.890;8.970;2022-09-09T03:56:41;98673.00;;;14.40
18782;BMP180;9519;51.890;8.970;2022-09-09T04:01:44;98662.00;;;14.40
18782;BMP180;9519;51.890;8.970;2022-09-09T04:06:47;98668.00;;;14.40
18782;BMP180;9519;51.890;8.970;2022-09-09T04:11:51;98658.00;;;14.40
18782;BMP180;9519;51.890;8.970;2022-09-09T04:16:55;98653.00;;;14.40
18782;BMP180;9519;51.890;8.970;2022-09-09T04:21:58;98661.00;;;14.30
18782;BMP180;9519;51.890;8.970;2022-09-09T04:27:00;98661.00;;;14.40
18782;BMP180;9519;51.890;8.970;2022-09-09T04:32:04;98676.00;;;14.40
18782;BMP180;9519;51.890;8.970;2022-09-09T04:37:06;98675.00;;;14.40
18782;BMP180;9519;51.890;8.970;2022-09-09T04:42:08;98684.00;;;14.40
18782;BMP180;9519;51.890;8.970;2022-09-09T04:47:12;98693.00;;;14.40
18782;BMP180;9519;51.890;8.970;2022-09-09T04:52:15;98699.00;;;14.40
18782;BMP180;9519;51.890;8.970;2022-09-09T04:57:18;98694.00;;;14.40
18782;BMP180;9519;51.890;8.970;2022-09-09T05:02:22;98692.00;;;14.40
18782;BMP180;9519;51.890;8.970;2022-09-09T05:07:24;98694.00;;;14.40
18782;BMP180;9519;51.890;8.970;2022-09-09T05:12:29;98688.00;;;14.40
18782;BMP180;9519;51.890;8.970;2022-09-09T05:17:34;98689.00;;;14.40
18782;BMP180;9519;51.890;8.970;2022-09-09T05:22:36;98694.00;;;14.40
18782;BMP180;9519;51.890;8.970;2022-09-09T05:27:38;98691.00;;;14.40
18782;BMP180;9519;51.890;8.970;2022-09-09T05:32:41;98694.00;;;14.40
18782;BMP180;9519;51.890;8.970;2022-09-09T05:37:44;98690.00;;;14.40
18782;BMP180;9519;51.890;8.970;2022-09-09T05:42:46;98689.00;;;14.40
18782;BMP180;9519;51.890;8.970;2022-09-09T05:47:53;98690.00;;;14.50
18782;BMP180;9519;51.890;8.970;2022-09-09T05:52:55;98696.00;;;14.50
18782;BMP180;9519;51.890;8.970;2022-09-09T05:57:57;98690.00;;;14.60
18782;BMP180;9519;51.890;8.970;2022-09-09T06:03:01;98695.00;;;14.60
18782;BMP180;9519;51.890;8.970;2022-09-09T06:08:04;98691.00;;;14.70
18782;BMP180;9519;51.890;8.970;2022-09-09T06:13:06;98699.00;;;14.70
18782;BMP180;9519;51.890;8.970;2022-09-09T06:18:11;98693.00;;;14.80
18782;BMP180;9519;51.890;8.970;2022-09-09T06:23:13;98698.00;;;14.90
18782;BMP180;9519;51.890;8.970;2022-09-09T06:28:15;98686.00;;;15.10
18782;BMP180;9519;51.890;8.970;2022-09-09T06:33:19;98693.00;;;15.20
18782;BMP180;9519;51.890;8.970;2022-09-09T06:38:23;98698.00;;;15.40
18782;BMP180;9519;51.890;8.970;2022-09-09T06:43:25;98692.00;;;15.60
18782;BMP180;9519;51.890;8.970;2022-09-09T06:48:29;98692.00;;;15.70
18782;BMP180;9519;51.890;8.970;2022-09-09T06:53:32;98701.00;;;15.70
18782;BMP180;9519;51.890;8.970;2022-09-09T06:58:35;98699.00;;;15.80
18782;BMP180;9519;51.890;8.970;2022-09-09T07:03:39;98702.00;;;15.80
18782;BMP180;9519;51.890;8.970;2022-09-09T07:08:41;98705.00;;;15.90
18782;BMP180;9519;51.890;8.970;2022-09-09T07:13:43;98707.00;;;16.00
18782;BMP180;9519;51.890;8.970;2022-09-09T07:18:47;98704.00;;;16.00
18782;BMP180;9519;51.890;8.970;2022-09-09T07:23:51;98713.00;;;16.10
18782;BMP180;9519;51.890;8.970;2022-09-09T07:28:53;98714.00;;;16.10
18782;BMP180;9519;51.890;8.970;2022-09-09T07:33:58;98714.00;;;16.20
18782;BMP180;9519;51.890;8.970;2022-09-09T07:39:04;98715.00;;;16.30
18782;BMP180;9519;51.890;8.970;2022-09-09T07:44:09;98716.00;;;16.30
18782;BMP180;9519;51.890;8.970;2022-09-09T07:49:14;98714.00;;;16.40
18782;BMP180;9519;51.890;8.970;2022-09-09T07:54:19;98711.00;;;16.40
18782;BMP180;9519;51.890;8.970;2022-09-09T07:59:24;98717.00;;;16.50
18782;BMP180;9519;51.890;8.970;2022-09-09T08:04:27;98717.00;;;16.60
18782;BMP180;9519;51.890;8.970;2022-09-09T08:09:30;98716.00;;;16.70
18782;BMP180;9519;51.890;8.970;2022-09-09T08:14:33;98713.00;;;16.90
18782;BMP180;9519;51.890;8.970;2022-09-09T08:19:36;98711.00;;;17.00
18782;BMP180;9519;51.890;8.970;2022-09-09T08:24:38;98715.00;;;17.10
18782;BMP180;9519;51.890;8.970;2022-09-09T08:29:41;98718.00;;;17.20
18782;BMP180;9519;51.890;8.970;2022-09-09T08:34:45;98718.00;;;17.30
18782;BMP180;9519;51.890;8.970;2022-09-09T08:39:47;98731.00;;;17.40
18782;BMP180;9519;51.890;8.970;2022-09-09T08:45:09;98734.00;;;17.40
18782;BMP180;9519;51.890;8.970;2022-09-09T08:50:25;98740.00;;;17.40
18782;BMP180;9519;51.890;8.970;2022-09-09T08:55:41;98748.00;;;17.50
18782;BMP180;9519;51.890;8.970;2022-09-09T09:01:03;98740.00;;;17.60
18782;BMP180;9519;51.890;8.970;2022-09-09T09:06:26;98734.00;;;17.80
18782;BMP180;9519;51.890;8.970;2022-09-09T09:11:36;98730.00;;;17.90
18782;BMP180;9519;51.890;8.970;2022-09-09T09:16:54;98740.00;;;18.00
18782;BMP180;9519;51.890;8.970;2022-09-09T09:22:06;98725.00;;;18.20
18782;BMP180;9519;51.890;8.970;2022-09-09T09:27:16;98721.00;;;18.30
18782;BMP180;9519;51.890;8.970;2022-09-09T09:32:21;98727.00;;;18.40
18782;BMP180;9519;51.890;8.970;2022-09-09T09:37:31;98719.00;;;18.50
18782;BMP180;9519;51.890;8.970;2022-09-09T09:42:34;98712.00;;;18.60
18782;BMP180;9519;51.890;8.970;2022-09-09T09:47:37;98700.00;;;18.70
18782;BMP180;9519;51.890;8.970;2022-09-09T09:52:54;98708.00;;;18.90
18782;BMP180;9519;51.890;8.970;2022-09-09T09:58:04;98723.00;;;18.90
18782;BMP180;9519;51.890;8.970;2022-09-09T10:03:21;98732.00;;;18.80
18782;BMP180;9519;51.890;8.970;2022-09-09T10:08:26;98732.00;;;18.80
18782;BMP180;9519;51.890;8.970;2022-09-09T10:13:35;98728.00;;;18.70
18782;BMP180;9519;51.890;8.970;2022-09-09T10:18:57;98721.00;;;18.80
18782;BMP180;9519;51.890;8.970;2022-09-09T10:24:29;98714.00;;;19.00
18782;BMP180;9519;51.890;8.970;2022-09-09T10:30:00;98705.00;;;19.30
18782;BMP180;9519;51.890;8.970;2022-09-09T10:35:14;98694.00;;;19.60
18782;BMP180;9519;51.890;8.970;2022-09-09T10:40:31;98679.00;;;19.80
18782;BMP180;9519;51.890;8.970;2022-09-09T10:45:44;98663.00;;;20.00
18782;BMP180;9519;51.890;8.970;2022-09-09T10:50:59;98678.00;;;20.20
18782;BMP180;9519;51.890;8.970;2022-09-09T10:56:09;98801.00;;;20.20
18782;BMP180;9519;51.890;8.970;2022-09-09T11:01:20;98793.00;;;20.40
18782;BMP180;9519;51.890;8.970;2022-09-09T11:06:32;98804.00;;;20.50
18782;BMP180;9519;51.890;8.970;2022-09-09T11:11:45;98793.00;;;20.60
18782;BMP180;9519;51.890;8.970;2022-09-09T11:16:56;98794.00;;;20.70
18782;BMP180;9519;51.890;8.970;2022-09-09T11:22:04;98786.00;;;20.90
18782;BMP180;9519;51.890;8.970;2022-09-09T11:27:16;98786.00;;;21.00
18782;BMP180;9519;51.890;8.970;2022-09-09T11:38:26;98784.00;;;21.20
18782;BMP180;9519;51.890;8.970;2022-09-09T11:43:39;98777.00;;;21.30
18782;BMP180;9519;51.890;8.970;2022-09-09T11:48:44;98656.00;;;21.30
18782;BMP180;9519;51.890;8.970;2022-09-09T11:53:52;98767.00;;;21.30
18782;BMP180;9519;51.890;8.970;2022-09-09T11:59:00;98776.00;;;21.40
18782;BMP180;9519;51.890;8.970;2022-09-09T12:04:32;98771.00;;;21.70
18782;BMP180;9519;51.890;8.970;2022-09-09T12:09:47;98781.00;;;21.70
18782;BMP180;9519;51.890;8.970;2022-09-09T12:20:19;98648.00;;;21.60
18782;BMP180;9519;51.890;8.970;2022-09-09T12:25:32;98759.00;;;21.60
18782;BMP180;9519;51.890;8.970;2022-09-09T12:30:49;98776.00;;;21.50
18782;BMP180;9519;51.890;8.970;2022-09-09T12:35:58;98775.00;;;21.30
18782;BMP180;9519;51.890;8.970;2022-09-09T12:41:01;98779.00;;;21.20
18782;BMP180;9519;51.890;8.970;2022-09-09T12:46:19;98783.00;;;21.40
18782;BMP180;9519;51.890;8.970;2022-09-09T12:51:29;98767.00;;;21.70
18782;BMP180;9519;51.890;8.970;2022-09-09T12:56:33;98744.00;;;21.90
18782;BMP180;9519;51.890;8.970;2022-09-09T13:01:37;98760.00;;;22.10
18782;BMP180;9519;51.890;8.970;2022-09-09T13:06:39;98748.00;;;22.00
18782;BMP180;9519;51.890;8.970;2022-09-09T13:11:44;98757.00;;;22.10
18782;BMP180;9519;51.890;8.970;2022-09-09T13:16:58;98734.00;;;22.20
18782;BMP180;9519;51.890;8.970;2022-09-09T13:22:12;98734.00;;;22.10
18782;BMP180;9519;51.890;8.970;2022-09-09T13:27:29;98736.00;;;22.20
18782;BMP180;9519;51.890;8.970;2022-09-09T13:32:33;98737.00;;;22.30
18782;BMP180;9519;51.890;8.970;2022-09-09T13:37:37;98735.00;;;22.20
18782;BMP180;9519;51.890;8.970;2022-09-09T13:42:42;98728.00;;;22.10
18782;BMP180;9519;51.890;8.970;2022-09-09T13:47:45;98733.00;;;22.00
18782;BMP180;9519;51.890;8.970;2022-09-09T13:52:48;98732.00;;;22.20
18782;BMP180;9519;51.890;8.970;2022-09-09T13:57:54;98723.00;;;22.70
18782;BMP180;9519;51.890;8.970;2022-09-09T14:02:58;98703.00;;;23.00
18782;BMP180;9519;51.890;8.970;2022-09-09T14:08:04;98583.00;;;23.10
18782;BMP180;9519;51.890;8.970;2022-09-09T14:13:07;98689.00;;;22.90
18782;BMP180;9519;51.890;8.970;2022-09-09T14:18:12;98694.00;;;23.10
18782;BMP180;9519;51.890;8.970;2022-09-09T14:23:15;98709.00;;;23.10
18782;BMP180;9519;51.890;8.970;2022-09-09T14:28:17;98709.00;;;22.90
18782;BMP180;9519;51.890;8.970;2022-09-09T14:33:21;98708.00;;;23.10
18782;BMP180;9519;51.890;8.970;2022-09-09T14:38:23;98698.00;;;23.20
18782;BMP180;9519;51.890;8.970;2022-09-09T14:43:25;98700.00;;;23.20
18782;BMP180;9519;51.890;8.970;2022-09-09T14:48:29;98696.00;;;23.20
18782;BMP180;9519;51.890;8.970;2022-09-09T14:53:31;98687.00;;;23.20
18782;BMP180;9519;51.890;8.970;2022-09-09T14:58:33;98680.00;;;23.30
18782;BMP180;9519;51.890;8.970;2022-09-09T15:03:37;98569.00;;;23.50
18782;BMP180;9519;51.890;8.970;2022-09-09T15:08:42;98673.00;;;23.50
18782;BMP180;9519;51.890;8.970;2022-09-09T15:13:45;98671.00;;;24.30
18782;BMP180;9519;51.890;8.970;2022-09-09T15:18:52;98679.00;;;24.40
18782;BMP180;9519;51.890;8.970;2022-09-09T15:23:55;98698.00;;;24.30
18782;BMP180;9519;51.890;8.970;2022-09-09T15:28:58;98695.00;;;24.00
18782;BMP180;9519;51.890;8.970;2022-09-09T15:34:05;98700.00;;;23.70
18782;BMP180;9519;51.890;8.970;2022-09-09T15:39:10;98702.00;;;23.40
18782;BMP180;9519;51.890;8.970;2022-09-09T15:44:14;98707.00;;;23.00
18782;BMP180;9519;51.890;8.970;2022-09-09T15:49:20;98689.00;;;22.80
18782;BMP180;9519;51.890;8.970;2022-09-09T15:54:26;98695.00;;;22.70
18782;BMP180;9519;51.890;8.970;2022-09-09T15:59:30;98683.00;;;22.50
18782;BMP180;9519;51.890;8.970;2022-09-09T16:04:34;98695.00;;;22.40
18782;BMP180;9519;51.890;8.970;2022-09-09T16:09:36;98695.00;;;22.20
18782;BMP180;9519;51.890;8.970;2022-09-09T16:14:38;98703.00;;;22.10
18782;BMP180;9519;51.890;8.970;2022-09-09T16:19:42;98706.00;;;21.90
18782;BMP180;9519;51.890;8.970;2022-09-09T16:24:45;98706.00;;;21.70
18782;BMP180;9519;51.890;8.970;2022-09-09T16:29:50;98706.00;;;21.60
18782;BMP180;9519;51.890;8.970;2022-09-09T16:34:53;98727.00;;;21.60
18782;BMP180;9519;51.890;8.970;2022-09-09T16:39:55;98738.00;;;21.50
18782;BMP180;9519;51.890;8.970;2022-09-09T16:44:57;98749.00;;;21.40
18782;BMP180;9519;51.890;8.970;2022-09-09T16:50:01;98794.00;;;21.20
18782;BMP180;9519;51.890;8.970;2022-09-09T16:55:04;98880.00;;;20.20
18782;BMP180;9519;51.890;8.970;2022-09-09T17:00:08;98744.00;;;17.80
18782;BMP180;9519;51.890;8.970;2022-09-09T17:05:11;98770.00;;;16.60
18782;BMP180;9519;51.890;8.970;2022-09-09T17:10:14;98774.00;;;16.00
18782;BMP180;9519;51.890;8.970;2022-09-09T17:15:16;98813.00;;;15.60
18782;BMP180;9519;51.890;8.970;2022-09-09T17:20:20;98965.00;;;15.40
18782;BMP180;9519;51.890;8.970;2022-09-09T17:25:22;98966.00;;;15.30
18782;BMP180;9519;51.890;8.970;2022-09-09T17:30:25;98929.00;;;15.20
18782;BMP180;9519;51.890;8.970;2022-09-09T17:35:29;98922.00;;;15.00
18782;BMP180;9519;51.890;8.970;2022-09-09T17:40:32;98927.00;;;15.00
18782;BMP180;9519;51.890;8.970;2022-09-09T17:45:34;98945.00;;;15.00
18782;BMP180;9519;51.890;8.970;2022-09-09T17:50:38;98935.00;;;15.10
18782;BMP180;9519;51.890;8.970;2022-09-09T17:55:40;98941.00;;;15.00
18782;BMP180;9519;51.890;8.970;2022-09-09T18:00:42;98945.00;;;15.00
18782;BMP180;9519;51.890;8.970;2022-09-09T18:05:46;98968.00;;;15.00
18782;BMP180;9519;51.890;8.970;2022-09-09T18:10:54;98961.00;;;15.00
18782;BMP180;9519;51.890;8.970;2022-09-09T18:15:56;98969.00;;;15.00
18782;BMP180;9519;51.890;8.970;2022-09-09T18:21:02;98972.00;;;14.90
18782;BMP180;9519;51.890;8.970;2022-09-09T18:26:07;98959.00;;;14.90
18782;BMP180;9519;51.890;8.970;2022-09-09T18:31:16;98967.00;;;14.90
18782;BMP180;9519;51.890;8.970;2022-09-09T18:36:23;98971.00;;;14.90
18782;BMP180;9519;51.890;8.970;2022-09-09T18:41:28;98963.00;;;14.90
18782;BMP180;9519;51.890;8.970;2022-09-09T18:46:34;98973.00;;;15.00
18782;BMP180;9519;51.890;8.970;2022-09-09T18:51:39;98979.00;;;15.00
18782;BMP180;9519;51.890;8.970;2022-09-09T18:56:43;98977.00;;;15.00
18782;BMP180;9519;51.890;8.970;2022-09-09T19:01:46;98969.00;;;15.00
18782;BMP180;9519;51.890;8.970;2022-09-09T19:06:50;98968.00;;;15.00
18782;BMP180;9519;51.890;8.970;2022-09-09T19:11:57;98976.00;;;15.00
18782;BMP180;9519;51.890;8.970;2022-09-09T19:17:00;98967.00;;;15.00
18782;BMP180;9519;51.890;8.970;2022-09-09T19:22:04;98973.00;;;15.00
18782;BMP180;9519;51.890;8.970;2022-09-09T19:27:11;98975.00;;;15.00
18782;BMP180;9519;51.890;8.970;2022-09-09T19:32:13;98982.00;;;15.00
18782;BMP180;9519;51.890;8.970;2022-09-09T19:37:16;98976.00;;;15.00
18782;BMP180;9519;51.890;8.970;2022-09-09T19:42:19;98972.00;;;15.00
18782;BMP180;9519;51.890;8.970;2022-09-09T19:47:21;98977.00;;;15.00
18782;BMP180;9519;51.890;8.970;2022-09-09T19:52:25;98972.00;;;15.00
18782;BMP180;9519;51.890;8.970;2022-09-09T19:57:27;98967.00;;;15.00
18782;BMP180;9519;51.890;8.970;2022-09-09T20:02:30;98961.00;;;15.00
18782;BMP180;9519;51.890;8.970;2022-09-09T20:07:34;98964.00;;;15.00
18782;BMP180;9519;51.890;8.970;2022-09-09T20:12:36;98965.00;;;15.00
18782;BMP180;9519;51.890;8.970;2022-09-09T20:17:38;98964.00;;;15.00
18782;BMP180;9519;51.890;8.970;2022-09-09T20:22:42;98969.00;;;15.00
18782;BMP180;9519;51.890;8.970;2022-09-09T20:27:44;98974.00;;;14.90
18782;BMP180;9519;51.890;8.970;2022-09-09T20:32:46;98982.00;;;15.00
18782;BMP180;9519;51.890;8.970;2022-09-09T20:37:50;98982.00;;;15.00
18782;BMP180;9519;51.890;8.970;2022-09-09T20:42:52;98998.00;;;14.90
18782;BMP180;9519;51.890;8.970;2022-09-09T20:47:54;98995.00;;;14.90
18782;BMP180;9519;51.890;8.970;2022-09-09T20:52:58;98989.00;;;14.90
18782;BMP180;9519;51.890;8.970;2022-09-09T20:58:00;98988.00;;;14.80
18782;BMP180;9519;51.890;8.970;2022-09-09T21:03:02;98981.00;;;14.80
18782;BMP180;9519;51.890;8.970;2022-09-09T21:08:06;98994.00;;;14.80
18782;BMP180;9519;51.890;8.970;2022-09-09T21:13:08;98994.00;;;14.80
18782;BMP180;9519;51.890;8.970;2022-09-09T21:18:11;98988.00;;;14.80
18782;BMP180;9519;51.890;8.970;2022-09-09T21:23:16;98975.00;;;14.80
18782;BMP180;9519;51.890;8.970;2022-09-09T21:28:18;98997.00;;;14.70
18782;BMP180;9519;51.890;8.970;2022-09-09T21:33:23;99001.00;;;14.70
18782;BMP180;9519;51.890;8.970;2022-09-09T21:38:29;99003.00;;;14.70
18782;BMP180;9519;51.890;8.970;2022-09-09T21:43:32;98996.00;;;14.70
18782;BMP180;9519;51.890;8.970;2022-09-09T21:48:34;99002.00;;;14.60
18782;BMP180;9519;51.890;8.970;2022-09-09T21:53:37;99000.00;;;14.50
18782;BMP180;9519;51.890;8.970;2022-09-09T21:58:40;98999.00;;;14.50
18782;BMP180;9519;51.890;8.970;2022-09-09T22:03:42;99011.00;;;14.50
18782;BMP180;9519;51.890;8.970;2022-09-09T22:08:46;99003.00;;;14.40
18782;BMP180;9519;51.890;8.970;2022-09-09T22:13:49;99012.00;;;14.40
18782;BMP180;9519;51.890;8.970;2022-09-09T22:18:54;99013.00;;;14.30
18782;BMP180;9519;51.890;8.970;2022-09-09T22:24:02;99017.00;;;14.30
18782;BMP180;9519;51.890;8.970;2022-09-09T22:29:05;99023.00;;;14.30
18782;BMP180;9519;51.890;8.970;2022-09-09T22:34:08;99014.00;;;14.30
18782;BMP180;9519;51.890;8.970;2022-09-09T22:39:12;99005.00;;;14.30
18782;BMP180;9519;51.890;8.970;2022-09-09T22:44:14;99014.00;;;14.30
18782;BMP180;9519;51.890;8.970;2022-09-09T22:49:17;99018.00;;;14.30
18782;BMP180;9519;51.890;8.970;2022-09-09T22:54:21;99025.00;;;14.20
18782;BMP180;9519;51.890;8.970;2022-09-09T22:59:23;99017.00;;;14.20
18782;BMP180;9519;51.890;8.970;2022-09-09T23:04:26;99015.00;;;14.20
18782;BMP180;9519;51.890;8.970;2022-09-09T23:09:29;99016.00;;;14.20
18782;BMP180;9519;51.890;8.970;2022-09-09T23:14:31;99007.00;;;14.10
18782;BMP180;9519;51.890;8.970;2022-09-09T23:19:33;99006.00;;;14.10
18782;BMP180;9519;51.890;8.970;2022-09-09T23:24:38;99001.00;;;14.10
18782;BMP180;9519;51.890;8.970;2022-09-09T23:29:41;99008.00;;;14.10
18782;BMP180;9519;51.890;8.970;2022-09-09T23:34:46;98993.00;;;14.00
18782;BMP180;9519;51.890;8.970;2022-09-09T23:39:49;98995.00;;;14.00
18782;BMP180;9519;51.890;8.970;2022-09-09T23:44:51;98991.00;;;13.90
18782;BMP180;9519;51.890;8.970;2022-09-09T23:49:53;98984.00;;;13.90
18782;BMP180;9519;51.890;8.970;2022-09-09T23:54:57;98986.00;;;13.90
18782;BMP180;9519;51.890;8.970;2022-09-09T23:59:59;98972.00;;;13.80
